In Rescue
 
Open Full Screen Window  High Contrast Mode
Wind Gusting 23 knots
18
March 01, 2024 1:57 PM CST
Weather Information
Wind Direction
  200 °
Wind Speed
  18 kt (21 mph)
Wind Gust
  23 kt (26 mph)
Altimeter
29.68 in
Visibility
10 SM
Temperature
14° C
57° F
Dewpoint
00° C
32° F
Humidity
38%
Sky Condition
Clear
VFR

METAR KOVL 011957Z AUTO 20018G23KT 10SM CLR 14/00 A2968 RMK AO2

FAA Disclaimer: The data displayed is for advisory purposes only and is not to be used for flight planning or operations.